sensor_id;sensor_type;location;lat;lon;timestamp;temperature;humidity
47845;DHT22;33605;48.822;8.796;2022-11-21T00:00:46;9.10;56.40
47845;DHT22;33605;48.822;8.796;2022-11-21T00:03:15;9.10;56.50
47845;DHT22;33605;48.822;8.796;2022-11-21T00:05:45;9.10;56.50
47845;DHT22;33605;48.822;8.796;2022-11-21T00:08:12;9.10;56.40
47845;DHT22;33605;48.822;8.796;2022-11-21T00:10:39;9.20;56.30
47845;DHT22;33605;48.822;8.796;2022-11-21T00:13:06;9.10;56.30
47845;DHT22;33605;48.822;8.796;2022-11-21T00:15:32;9.10;56.30
47845;DHT22;33605;48.822;8.796;2022-11-21T00:18:01;9.10;56.20
47845;DHT22;33605;48.822;8.796;2022-11-21T00:20:27;9.10;56.30
47845;DHT22;33605;48.822;8.796;2022-11-21T00:22:53;9.10;56.30
47845;DHT22;33605;48.822;8.796;2022-11-21T00:25:19;9.10;56.30
47845;DHT22;33605;48.822;8.796;2022-11-21T00:27:45;9.10;56.30
47845;DHT22;33605;48.822;8.796;2022-11-21T00:30:11;9.10;56.40
47845;DHT22;33605;48.822;8.796;2022-11-21T00:32:37;9.00;56.40
47845;DHT22;33605;48.822;8.796;2022-11-21T00:35:03;9.00;56.40
47845;DHT22;33605;48.822;8.796;2022-11-21T00:37:31;9.00;56.60
47845;DHT22;33605;48.822;8.796;2022-11-21T00:39:57;9.00;56.60
47845;DHT22;33605;48.822;8.796;2022-11-21T00:42:22;9.00;56.50
47845;DHT22;33605;48.822;8.796;2022-11-21T00:44:48;9.00;56.60
47845;DHT22;33605;48.822;8.796;2022-11-21T00:47:14;9.00;56.50
47845;DHT22;33605;48.822;8.796;2022-11-21T00:49:39;9.00;56.60
47845;DHT22;33605;48.822;8.796;2022-11-21T00:52:05;9.00;56.70
47845;DHT22;33605;48.822;8.796;2022-11-21T00:54:31;9.00;56.80
47845;DHT22;33605;48.822;8.796;2022-11-21T00:56:56;9.00;56.80
47845;DHT22;33605;48.822;8.796;2022-11-21T00:59:22;9.00;56.90
47845;DHT22;33605;48.822;8.796;2022-11-21T01:01:48;9.00;57.00
47845;DHT22;33605;48.822;8.796;2022-11-21T01:04:14;8.90;57.10
47845;DHT22;33605;48.822;8.796;2022-11-21T01:06:39;9.00;57.30
47845;DHT22;33605;48.822;8.796;2022-11-21T01:09:05;8.90;57.30
47845;DHT22;33605;48.822;8.796;2022-11-21T01:11:31;8.90;57.40
47845;DHT22;33605;48.822;8.796;2022-11-21T01:13:57;8.90;57.50
47845;DHT22;33605;48.822;8.796;2022-11-21T01:16:25;8.90;57.70
47845;DHT22;33605;48.822;8.796;2022-11-21T01:18:51;8.90;57.90
47845;DHT22;33605;48.822;8.796;2022-11-21T01:21:25;8.90;58.00
47845;DHT22;33605;48.822;8.796;2022-11-21T01:23:51;8.90;58.20
47845;DHT22;33605;48.822;8.796;2022-11-21T01:26:21;8.90;58.90
47845;DHT22;33605;48.822;8.796;2022-11-21T01:28:48;8.80;58.20
47845;DHT22;33605;48.822;8.796;2022-11-21T01:31:19;8.80;57.60
47845;DHT22;33605;48.822;8.796;2022-11-21T01:33:45;8.70;57.50
47845;DHT22;33605;48.822;8.796;2022-11-21T01:38:41;8.70;57.60
47845;DHT22;33605;48.822;8.796;2022-11-21T01:41:08;8.60;57.50
47845;DHT22;33605;48.822;8.796;2022-11-21T01:43:34;8.60;57.50
47845;DHT22;33605;48.822;8.796;2022-11-21T01:51:04;8.60;57.80
47845;DHT22;33605;48.822;8.796;2022-11-21T01:53:33;8.50;57.70
47845;DHT22;33605;48.822;8.796;2022-11-21T01:56:00;8.50;57.60
47845;DHT22;33605;48.822;8.796;2022-11-21T01:58:27;8.50;57.80
47845;DHT22;33605;48.822;8.796;2022-11-21T02:00:53;8.50;58.50
47845;DHT22;33605;48.822;8.796;2022-11-21T02:03:22;8.50;58.40
47845;DHT22;33605;48.822;8.796;2022-11-21T02:05:51;8.50;58.60
47845;DHT22;33605;48.822;8.796;2022-11-21T02:08:20;8.50;58.80
47845;DHT22;33605;48.822;8.796;2022-11-21T02:13:48;8.40;58.90
47845;DHT22;33605;48.822;8.796;2022-11-21T02:16:14;8.40;58.60
47845;DHT22;33605;48.822;8.796;2022-11-21T02:18:39;8.40;58.60
47845;DHT22;33605;48.822;8.796;2022-11-21T02:24:19;8.30;58.40
47845;DHT22;33605;48.822;8.796;2022-11-21T02:26:47;8.30;58.50
47845;DHT22;33605;48.822;8.796;2022-11-21T02:29:13;8.30;58.40
47845;DHT22;33605;48.822;8.796;2022-11-21T02:31:39;8.40;58.50
47845;DHT22;33605;48.822;8.796;2022-11-21T02:34:05;8.40;58.60
47845;DHT22;33605;48.822;8.796;2022-11-21T02:36:38;8.40;58.60
47845;DHT22;33605;48.822;8.796;2022-11-21T02:39:26;8.40;58.50
47845;DHT22;33605;48.822;8.796;2022-11-21T02:42:11;8.40;58.50
47845;DHT22;33605;48.822;8.796;2022-11-21T02:47:37;8.40;58.60
47845;DHT22;33605;48.822;8.796;2022-11-21T02:50:34;8.40;58.50
47845;DHT22;33605;48.822;8.796;2022-11-21T02:53:00;8.40;58.70
47845;DHT22;33605;48.822;8.796;2022-11-21T02:55:26;8.40;58.70
47845;DHT22;33605;48.822;8.796;2022-11-21T02:57:52;8.40;58.80
47845;DHT22;33605;48.822;8.796;2022-11-21T03:00:19;8.30;58.70
47845;DHT22;33605;48.822;8.796;2022-11-21T03:02:45;8.30;58.90
47845;DHT22;33605;48.822;8.796;2022-11-21T03:05:14;8.30;59.00
47845;DHT22;33605;48.822;8.796;2022-11-21T03:07:40;8.20;59.00
47845;DHT22;33605;48.822;8.796;2022-11-21T03:10:06;8.20;59.20
47845;DHT22;33605;48.822;8.796;2022-11-21T03:12:34;8.20;59.30
47845;DHT22;33605;48.822;8.796;2022-11-21T03:14:59;8.20;59.40
47845;DHT22;33605;48.822;8.796;2022-11-21T03:17:25;8.20;59.70
47845;DHT22;33605;48.822;8.796;2022-11-21T03:19:51;8.20;60.00
47845;DHT22;33605;48.822;8.796;2022-11-21T03:22:16;8.10;60.00
47845;DHT22;33605;48.822;8.796;2022-11-21T03:24:42;8.20;60.40
47845;DHT22;33605;48.822;8.796;2022-11-21T03:27:07;8.20;60.40
47845;DHT22;33605;48.822;8.796;2022-11-21T03:29:33;8.20;60.60
47845;DHT22;33605;48.822;8.796;2022-11-21T03:32:02;8.20;60.70
47845;DHT22;33605;48.822;8.796;2022-11-21T03:34:27;8.30;61.00
47845;DHT22;33605;48.822;8.796;2022-11-21T03:36:53;8.30;61.10
47845;DHT22;33605;48.822;8.796;2022-11-21T03:39:18;8.30;61.20
47845;DHT22;33605;48.822;8.796;2022-11-21T03:41:44;8.30;61.30
47845;DHT22;33605;48.822;8.796;2022-11-21T03:44:11;8.40;61.40
47845;DHT22;33605;48.822;8.796;2022-11-21T03:46:40;8.40;61.50
47845;DHT22;33605;48.822;8.796;2022-11-21T03:49:06;8.40;61.60
47845;DHT22;33605;48.822;8.796;2022-11-21T03:51:32;8.40;61.60
47845;DHT22;33605;48.822;8.796;2022-11-21T03:53:58;8.50;61.80
47845;DHT22;33605;48.822;8.796;2022-11-21T03:56:23;8.50;61.70
47845;DHT22;33605;48.822;8.796;2022-11-21T03:58:49;8.50;61.70
47845;DHT22;33605;48.822;8.796;2022-11-21T04:01:15;8.60;61.70
47845;DHT22;33605;48.822;8.796;2022-11-21T04:03:42;8.60;61.70
47845;DHT22;33605;48.822;8.796;2022-11-21T04:06:09;8.60;61.70
47845;DHT22;33605;48.822;8.796;2022-11-21T04:08:35;8.60;61.60
47845;DHT22;33605;48.822;8.796;2022-11-21T04:11:01;8.70;61.60
47845;DHT22;33605;48.822;8.796;2022-11-21T04:13:27;8.70;61.70
47845;DHT22;33605;48.822;8.796;2022-11-21T04:15:53;8.70;61.60
47845;DHT22;33605;48.822;8.796;2022-11-21T04:18:18;8.70;61.60
47845;DHT22;33605;48.822;8.796;2022-11-21T04:20:44;8.70;61.30
47845;DHT22;33605;48.822;8.796;2022-11-21T04:23:10;8.70;61.10
47845;DHT22;33605;48.822;8.796;2022-11-21T04:25:36;8.70;61.00
47845;DHT22;33605;48.822;8.796;2022-11-21T04:28:02;8.70;61.10
47845;DHT22;33605;48.822;8.796;2022-11-21T04:30:29;8.70;61.20
47845;DHT22;33605;48.822;8.796;2022-11-21T04:32:55;8.70;61.20
47845;DHT22;33605;48.822;8.796;2022-11-21T04:35:22;8.60;61.60
47845;DHT22;33605;48.822;8.796;2022-11-21T04:37:49;8.60;61.20
47845;DHT22;33605;48.822;8.796;2022-11-21T04:40:15;8.60;61.20
47845;DHT22;33605;48.822;8.796;2022-11-21T04:42:42;8.60;61.10
47845;DHT22;33605;48.822;8.796;2022-11-21T04:45:08;8.60;61.20
47845;DHT22;33605;48.822;8.796;2022-11-21T04:47:38;8.50;61.10
47845;DHT22;33605;48.822;8.796;2022-11-21T04:50:05;8.50;61.10
47845;DHT22;33605;48.822;8.796;2022-11-21T04:52:31;8.50;61.10
47845;DHT22;33605;48.822;8.796;2022-11-21T04:54:57;8.50;61.00
47845;DHT22;33605;48.822;8.796;2022-11-21T04:57:23;8.50;60.90
47845;DHT22;33605;48.822;8.796;2022-11-21T04:59:49;8.40;60.80
47845;DHT22;33605;48.822;8.796;2022-11-21T05:02:15;8.50;60.80
47845;DHT22;33605;48.822;8.796;2022-11-21T05:04:41;8.60;60.90
47845;DHT22;33605;48.822;8.796;2022-11-21T05:07:06;8.50;60.90
47845;DHT22;33605;48.822;8.796;2022-11-21T05:09:32;8.50;60.90
47845;DHT22;33605;48.822;8.796;2022-11-21T05:11:57;8.50;60.90
47845;DHT22;33605;48.822;8.796;2022-11-21T05:14:41;8.50;60.70
47845;DHT22;33605;48.822;8.796;2022-11-21T05:17:07;8.50;60.60
47845;DHT22;33605;48.822;8.796;2022-11-21T05:19:33;8.50;60.40
47845;DHT22;33605;48.822;8.796;2022-11-21T05:21:58;8.60;60.50
47845;DHT22;33605;48.822;8.796;2022-11-21T05:24:24;8.50;60.30
47845;DHT22;33605;48.822;8.796;2022-11-21T05:26:50;8.50;60.20
47845;DHT22;33605;48.822;8.796;2022-11-21T05:29:16;8.50;60.20
47845;DHT22;33605;48.822;8.796;2022-11-21T05:31:41;8.50;60.20
47845;DHT22;33605;48.822;8.796;2022-11-21T05:34:07;8.50;60.20
47845;DHT22;33605;48.822;8.796;2022-11-21T05:36:33;8.50;60.20
47845;DHT22;33605;48.822;8.796;2022-11-21T05:38:58;8.50;60.20
47845;DHT22;33605;48.822;8.796;2022-11-21T05:41:24;8.50;60.00
47845;DHT22;33605;48.822;8.796;2022-11-21T05:43:50;8.50;60.10
47845;DHT22;33605;48.822;8.796;2022-11-21T05:46:17;8.60;60.20
47845;DHT22;33605;48.822;8.796;2022-11-21T05:48:44;8.60;60.20
47845;DHT22;33605;48.822;8.796;2022-11-21T05:51:10;8.60;60.20
47845;DHT22;33605;48.822;8.796;2022-11-21T05:53:36;8.60;60.30
47845;DHT22;33605;48.822;8.796;2022-11-21T05:56:04;8.60;60.30
47845;DHT22;33605;48.822;8.796;2022-11-21T05:58:30;8.60;60.40
47845;DHT22;33605;48.822;8.796;2022-11-21T06:00:57;8.70;60.60
47845;DHT22;33605;48.822;8.796;2022-11-21T06:03:24;8.60;60.60
47845;DHT22;33605;48.822;8.796;2022-11-21T06:05:58;8.60;60.60
47845;DHT22;33605;48.822;8.796;2022-11-21T06:08:26;8.60;60.50
47845;DHT22;33605;48.822;8.796;2022-11-21T06:10:52;8.60;60.50
47845;DHT22;33605;48.822;8.796;2022-11-21T06:13:18;8.60;60.50
47845;DHT22;33605;48.822;8.796;2022-11-21T06:18:16;8.60;60.50
47845;DHT22;33605;48.822;8.796;2022-11-21T06:20:42;8.60;60.90
47845;DHT22;33605;48.822;8.796;2022-11-21T06:23:08;8.50;60.30
47845;DHT22;33605;48.822;8.796;2022-11-21T06:25:33;8.50;60.40
47845;DHT22;33605;48.822;8.796;2022-11-21T06:27:59;8.60;60.40
47845;DHT22;33605;48.822;8.796;2022-11-21T06:30:25;8.60;60.30
47845;DHT22;33605;48.822;8.796;2022-11-21T06:32:50;8.60;60.10
47845;DHT22;33605;48.822;8.796;2022-11-21T06:35:16;8.50;60.00
47845;DHT22;33605;48.822;8.796;2022-11-21T06:37:42;8.60;60.00
47845;DHT22;33605;48.822;8.796;2022-11-21T06:40:08;8.50;59.50
47845;DHT22;33605;48.822;8.796;2022-11-21T06:42:34;8.60;59.40
47845;DHT22;33605;48.822;8.796;2022-11-21T06:45:00;8.60;59.40
47845;DHT22;33605;48.822;8.796;2022-11-21T06:47:26;8.60;59.30
47845;DHT22;33605;48.822;8.796;2022-11-21T06:49:51;8.60;59.20
47845;DHT22;33605;48.822;8.796;2022-11-21T06:52:17;8.50;59.10
47845;DHT22;33605;48.822;8.796;2022-11-21T06:54:42;8.50;59.00
47845;DHT22;33605;48.822;8.796;2022-11-21T06:57:08;8.60;59.10
47845;DHT22;33605;48.822;8.796;2022-11-21T06:59:34;8.50;59.10
47845;DHT22;33605;48.822;8.796;2022-11-21T07:01:59;8.50;59.10
47845;DHT22;33605;48.822;8.796;2022-11-21T07:04:25;8.60;59.20
47845;DHT22;33605;48.822;8.796;2022-11-21T07:06:50;8.60;59.30
47845;DHT22;33605;48.822;8.796;2022-11-21T07:09:16;8.60;59.20
47845;DHT22;33605;48.822;8.796;2022-11-21T07:11:42;8.60;58.70
47845;DHT22;33605;48.822;8.796;2022-11-21T07:14:08;8.60;58.60
47845;DHT22;33605;48.822;8.796;2022-11-21T07:16:33;8.70;58.70
47845;DHT22;33605;48.822;8.796;2022-11-21T07:18:59;8.70;58.40
47845;DHT22;33605;48.822;8.796;2022-11-21T07:21:25;8.70;58.10
47845;DHT22;33605;48.822;8.796;2022-11-21T07:23:51;8.70;57.90
47845;DHT22;33605;48.822;8.796;2022-11-21T07:26:16;8.70;57.40
47845;DHT22;33605;48.822;8.796;2022-11-21T07:28:42;8.70;57.20
47845;DHT22;33605;48.822;8.796;2022-11-21T07:31:09;8.80;57.20
47845;DHT22;33605;48.822;8.796;2022-11-21T07:33:35;8.80;57.30
47845;DHT22;33605;48.822;8.796;2022-11-21T07:36:02;8.80;57.00
47845;DHT22;33605;48.822;8.796;2022-11-21T07:38:27;8.90;56.80
47845;DHT22;33605;48.822;8.796;2022-11-21T07:40:55;8.90;56.40
47845;DHT22;33605;48.822;8.796;2022-11-21T07:43:21;8.90;56.30
47845;DHT22;33605;48.822;8.796;2022-11-21T07:45:47;9.00;56.20
47845;DHT22;33605;48.822;8.796;2022-11-21T07:48:12;9.10;56.10
47845;DHT22;33605;48.822;8.796;2022-11-21T07:50:38;9.10;55.70
47845;DHT22;33605;48.822;8.796;2022-11-21T07:53:06;9.20;55.60
47845;DHT22;33605;48.822;8.796;2022-11-21T07:55:32;9.30;55.60
47845;DHT22;33605;48.822;8.796;2022-11-21T07:58:07;9.30;55.50
47845;DHT22;33605;48.822;8.796;2022-11-21T08:00:35;9.40;55.50
47845;DHT22;33605;48.822;8.796;2022-11-21T08:03:02;9.50;55.40
47845;DHT22;33605;48.822;8.796;2022-11-21T08:05:28;9.60;55.40
47845;DHT22;33605;48.822;8.796;2022-11-21T08:07:53;9.60;55.40
47845;DHT22;33605;48.822;8.796;2022-11-21T08:10:19;9.70;56.10
47845;DHT22;33605;48.822;8.796;2022-11-21T08:12:45;9.80;55.60
47845;DHT22;33605;48.822;8.796;2022-11-21T08:15:11;9.80;56.20
47845;DHT22;33605;48.822;8.796;2022-11-21T08:17:37;9.80;55.60
47845;DHT22;33605;48.822;8.796;2022-11-21T08:20:04;9.90;55.80
47845;DHT22;33605;48.822;8.796;2022-11-21T08:22:30;9.90;56.00
47845;DHT22;33605;48.822;8.796;2022-11-21T08:24:56;10.00;55.70
47845;DHT22;33605;48.822;8.796;2022-11-21T08:27:22;10.00;55.00
47845;DHT22;33605;48.822;8.796;2022-11-21T08:29:49;10.10;54.90
47845;DHT22;33605;48.822;8.796;2022-11-21T08:32:14;10.20;54.90
47845;DHT22;33605;48.822;8.796;2022-11-21T08:34:40;10.20;54.50
47845;DHT22;33605;48.822;8.796;2022-11-21T08:37:06;10.30;54.40
47845;DHT22;33605;48.822;8.796;2022-11-21T14:53:44;10.40;54.60
47845;DHT22;33605;48.822;8.796;2022-11-21T14:56:28;16.20;32.30
47845;DHT22;33605;48.822;8.796;2022-11-21T14:58:56;15.80;32.20
47845;DHT22;33605;48.822;8.796;2022-11-21T15:01:26;15.70;32.60
47845;DHT22;33605;48.822;8.796;2022-11-21T15:03:55;15.60;32.70
47845;DHT22;33605;48.822;8.796;2022-11-21T15:06:22;15.40;32.70
47845;DHT22;33605;48.822;8.796;2022-11-21T15:08:48;15.30;32.60
47845;DHT22;33605;48.822;8.796;2022-11-21T15:11:16;15.20;32.20
47845;DHT22;33605;48.822;8.796;2022-11-21T15:13:46;15.00;32.10
47845;DHT22;33605;48.822;8.796;2022-11-21T15:16:13;14.90;33.10
47845;DHT22;33605;48.822;8.796;2022-11-21T15:18:40;14.80;33.70
47845;DHT22;33605;48.822;8.796;2022-11-21T15:21:07;14.60;34.30
47845;DHT22;33605;48.822;8.796;2022-11-21T15:23:37;14.50;33.70
47845;DHT22;33605;48.822;8.796;2022-11-21T15:26:05;14.40;33.90
47845;DHT22;33605;48.822;8.796;2022-11-21T15:28:31;14.30;34.50
47845;DHT22;33605;48.822;8.796;2022-11-21T15:31:19;14.20;34.70
47845;DHT22;33605;48.822;8.796;2022-11-21T15:34:00;14.00;34.90
47845;DHT22;33605;48.822;8.796;2022-11-21T15:36:26;13.90;34.80
47845;DHT22;33605;48.822;8.796;2022-11-21T15:41:26;13.70;35.60
47845;DHT22;33605;48.822;8.796;2022-11-21T15:46:37;13.40;35.40
47845;DHT22;33605;48.822;8.796;2022-11-21T15:49:08;13.30;35.40
47845;DHT22;33605;48.822;8.796;2022-11-21T15:51:39;13.20;35.50
47845;DHT22;33605;48.822;8.796;2022-11-21T15:54:09;13.10;36.00
47845;DHT22;33605;48.822;8.796;2022-11-21T15:56:35;13.00;36.20
47845;DHT22;33605;48.822;8.796;2022-11-21T15:59:01;12.90;36.30
47845;DHT22;33605;48.822;8.796;2022-11-21T16:01:28;12.80;36.30
47845;DHT22;33605;48.822;8.796;2022-11-21T16:03:58;12.60;36.50
47845;DHT22;33605;48.822;8.796;2022-11-21T16:06:24;12.50;36.50
47845;DHT22;33605;48.822;8.796;2022-11-21T16:08:50;12.40;36.60
47845;DHT22;33605;48.822;8.796;2022-11-21T16:13:49;12.20;37.10
47845;DHT22;33605;48.822;8.796;2022-11-21T16:16:15;12.10;37.50
47845;DHT22;33605;48.822;8.796;2022-11-21T16:18:41;12.00;37.70
47845;DHT22;33605;48.822;8.796;2022-11-21T16:21:08;11.90;37.90
47845;DHT22;33605;48.822;8.796;2022-11-21T16:23:34;11.80;38.00
47845;DHT22;33605;48.822;8.796;2022-11-21T16:26:00;11.70;38.10
47845;DHT22;33605;48.822;8.796;2022-11-21T16:28:26;11.60;38.40
47845;DHT22;33605;48.822;8.796;2022-11-21T16:30:51;11.50;38.40
47845;DHT22;33605;48.822;8.796;2022-11-21T16:33:17;11.40;38.50
47845;DHT22;33605;48.822;8.796;2022-11-21T16:35:43;11.30;38.50
47845;DHT22;33605;48.822;8.796;2022-11-21T16:38:09;11.20;38.70
47845;DHT22;33605;48.822;8.796;2022-11-21T16:40:35;11.20;39.20
47845;DHT22;33605;48.822;8.796;2022-11-21T16:43:09;11.10;39.30
47845;DHT22;33605;48.822;8.796;2022-11-21T16:45:35;11.00;39.50
47845;DHT22;33605;48.822;8.796;2022-11-21T16:48:01;10.90;39.50
47845;DHT22;33605;48.822;8.796;2022-11-21T16:50:27;10.80;39.80
47845;DHT22;33605;48.822;8.796;2022-11-21T16:52:52;10.70;40.00
47845;DHT22;33605;48.822;8.796;2022-11-21T16:55:18;10.70;40.40
47845;DHT22;33605;48.822;8.796;2022-11-21T16:57:43;10.60;40.50
47845;DHT22;33605;48.822;8.796;2022-11-21T17:00:10;10.40;40.50
47845;DHT22;33605;48.822;8.796;2022-11-21T17:02:38;10.40;40.80
47845;DHT22;33605;48.822;8.796;2022-11-21T17:05:05;10.30;40.90
47845;DHT22;33605;48.822;8.796;2022-11-21T17:07:31;10.30;41.20
47845;DHT22;33605;48.822;8.796;2022-11-21T17:09:57;10.20;41.30
47845;DHT22;33605;48.822;8.796;2022-11-21T17:12:23;10.20;41.60
47845;DHT22;33605;48.822;8.796;2022-11-21T17:14:49;10.10;41.80
47845;DHT22;33605;48.822;8.796;2022-11-21T17:17:15;10.10;42.00
47845;DHT22;33605;48.822;8.796;2022-11-21T17:19:40;10.00;42.20
47845;DHT22;33605;48.822;8.796;2022-11-21T17:22:06;10.00;42.30
47845;DHT22;33605;48.822;8.796;2022-11-21T17:24:31;9.90;43.50
47845;DHT22;33605;48.822;8.796;2022-11-21T17:26:57;9.90;43.70
47845;DHT22;33605;48.822;8.796;2022-11-21T17:29:31;9.80;43.80
47845;DHT22;33605;48.822;8.796;2022-11-21T17:31:57;9.80;44.10
47845;DHT22;33605;48.822;8.796;2022-11-21T17:34:22;9.80;44.20
47845;DHT22;33605;48.822;8.796;2022-11-21T17:36:49;9.80;44.30
47845;DHT22;33605;48.822;8.796;2022-11-21T17:39:15;9.70;44.40
47845;DHT22;33605;48.822;8.796;2022-11-21T17:41:42;9.70;44.60
47845;DHT22;33605;48.822;8.796;2022-11-21T17:44:11;9.70;44.90
47845;DHT22;33605;48.822;8.796;2022-11-21T17:46:38;9.60;44.90
47845;DHT22;33605;48.822;8.796;2022-11-21T17:49:04;9.60;45.00
47845;DHT22;33605;48.822;8.796;2022-11-21T17:51:31;9.50;45.20
47845;DHT22;33605;48.822;8.796;2022-11-21T17:53:59;9.50;45.40
47845;DHT22;33605;48.822;8.796;2022-11-21T17:56:27;9.50;45.60
47845;DHT22;33605;48.822;8.796;2022-11-21T17:58:53;9.50;45.70
47845;DHT22;33605;48.822;8.796;2022-11-21T18:01:19;9.50;45.70
47845;DHT22;33605;48.822;8.796;2022-11-21T18:03:46;9.50;45.70
47845;DHT22;33605;48.822;8.796;2022-11-21T18:06:14;9.40;45.80
47845;DHT22;33605;48.822;8.796;2022-11-21T18:08:42;9.40;46.00
47845;DHT22;33605;48.822;8.796;2022-11-21T18:11:10;9.40;46.10
47845;DHT22;33605;48.822;8.796;2022-11-21T18:13:37;9.40;46.30
47845;DHT22;33605;48.822;8.796;2022-11-21T18:16:05;9.40;46.50
47845;DHT22;33605;48.822;8.796;2022-11-21T18:18:32;9.40;46.50
47845;DHT22;33605;48.822;8.796;2022-11-21T18:21:09;9.40;46.50
47845;DHT22;33605;48.822;8.796;2022-11-21T18:23:35;9.40;46.50
47845;DHT22;33605;48.822;8.796;2022-11-21T18:26:03;9.40;46.40
47845;DHT22;33605;48.822;8.796;2022-11-21T18:28:30;9.40;46.50
47845;DHT22;33605;48.822;8.796;2022-11-21T18:31:13;9.40;46.40
47845;DHT22;33605;48.822;8.796;2022-11-21T18:33:39;9.50;46.40
47845;DHT22;33605;48.822;8.796;2022-11-21T18:36:06;9.50;46.30
47845;DHT22;33605;48.822;8.796;2022-11-21T18:38:34;9.50;46.20
47845;DHT22;33605;48.822;8.796;2022-11-21T18:43:30;9.50;46.30
47845;DHT22;33605;48.822;8.796;2022-11-21T18:46:06;9.50;46.50
47845;DHT22;33605;48.822;8.796;2022-11-21T18:48:32;9.60;46.60
47845;DHT22;33605;48.822;8.796;2022-11-21T18:51:02;9.60;46.80
47845;DHT22;33605;48.822;8.796;2022-11-21T18:53:29;9.60;46.80
47845;DHT22;33605;48.822;8.796;2022-11-21T18:55:55;9.60;46.70
47845;DHT22;33605;48.822;8.796;2022-11-21T18:58:26;9.60;46.70
47845;DHT22;33605;48.822;8.796;2022-11-21T19:01:02;9.60;46.70
47845;DHT22;33605;48.822;8.796;2022-11-21T19:03:28;9.70;46.70
47845;DHT22;33605;48.822;8.796;2022-11-21T19:05:53;9.70;46.60
47845;DHT22;33605;48.822;8.796;2022-11-21T19:08:19;9.70;46.70
47845;DHT22;33605;48.822;8.796;2022-11-21T19:10:45;9.70;46.80
47845;DHT22;33605;48.822;8.796;2022-11-21T19:13:11;9.70;46.80
47845;DHT22;33605;48.822;8.796;2022-11-21T19:15:36;9.70;47.00
47845;DHT22;33605;48.822;8.796;2022-11-21T19:18:03;9.80;47.00
47845;DHT22;33605;48.822;8.796;2022-11-21T19:20:32;9.70;46.90
47845;DHT22;33605;48.822;8.796;2022-11-21T19:22:58;9.70;46.80
47845;DHT22;33605;48.822;8.796;2022-11-21T19:25:23;9.80;46.90
47845;DHT22;33605;48.822;8.796;2022-11-21T19:27:49;9.80;46.90
47845;DHT22;33605;48.822;8.796;2022-11-21T19:30:15;9.80;46.80
47845;DHT22;33605;48.822;8.796;2022-11-21T19:32:40;9.80;46.80
47845;DHT22;33605;48.822;8.796;2022-11-21T19:35:06;9.80;46.80
47845;DHT22;33605;48.822;8.796;2022-11-21T19:37:32;9.80;46.90
47845;DHT22;33605;48.822;8.796;2022-11-21T19:39:58;9.90;46.90
47845;DHT22;33605;48.822;8.796;2022-11-21T19:42:23;9.90;46.90
47845;DHT22;33605;48.822;8.796;2022-11-21T19:44:49;9.90;46.90
47845;DHT22;33605;48.822;8.796;2022-11-21T19:47:14;9.90;46.90
47845;DHT22;33605;48.822;8.796;2022-11-21T19:49:40;9.90;46.90
47845;DHT22;33605;48.822;8.796;2022-11-21T19:52:05;9.90;46.90
47845;DHT22;33605;48.822;8.796;2022-11-21T19:54:31;9.90;47.10
47845;DHT22;33605;48.822;8.796;2022-11-21T19:56:57;9.90;47.30
47845;DHT22;33605;48.822;8.796;2022-11-21T19:59:22;9.90;47.30
47845;DHT22;33605;48.822;8.796;2022-11-21T20:01:48;9.90;47.50
47845;DHT22;33605;48.822;8.796;2022-11-21T20:04:14;9.90;47.40
47845;DHT22;33605;48.822;8.796;2022-11-21T20:06:41;9.90;47.50
47845;DHT22;33605;48.822;8.796;2022-11-21T20:09:12;9.90;47.60
47845;DHT22;33605;48.822;8.796;2022-11-21T20:11:40;9.80;47.70
47845;DHT22;33605;48.822;8.796;2022-11-21T20:14:06;9.90;47.80
47845;DHT22;33605;48.822;8.796;2022-11-21T20:16:42;9.80;47.70
47845;DHT22;33605;48.822;8.796;2022-11-21T20:19:10;9.80;47.90
47845;DHT22;33605;48.822;8.796;2022-11-21T20:21:37;9.90;47.90
47845;DHT22;33605;48.822;8.796;2022-11-21T20:24:03;9.90;47.90
47845;DHT22;33605;48.822;8.796;2022-11-21T20:26:30;9.80;48.00
47845;DHT22;33605;48.822;8.796;2022-11-21T20:28:56;9.80;48.10
47845;DHT22;33605;48.822;8.796;2022-11-21T20:31:33;9.80;48.00
47845;DHT22;33605;48.822;8.796;2022-11-21T20:34:00;9.80;48.10
47845;DHT22;33605;48.822;8.796;2022-11-21T20:36:29;9.80;48.00
47845;DHT22;33605;48.822;8.796;2022-11-21T20:39:00;9.80;48.10
47845;DHT22;33605;48.822;8.796;2022-11-21T20:41:31;9.80;48.30
47845;DHT22;33605;48.822;8.796;2022-11-21T20:44:00;9.80;48.40
47845;DHT22;33605;48.822;8.796;2022-11-21T20:46:26;9.80;48.40
47845;DHT22;33605;48.822;8.796;2022-11-21T20:48:52;9.80;48.30
47845;DHT22;33605;48.822;8.796;2022-11-21T20:51:18;9.80;48.90
47845;DHT22;33605;48.822;8.796;2022-11-21T20:53:44;9.80;48.30
47845;DHT22;33605;48.822;8.796;2022-11-21T20:56:11;9.80;48.30
47845;DHT22;33605;48.822;8.796;2022-11-21T20:58:39;9.90;48.50
47845;DHT22;33605;48.822;8.796;2022-11-21T21:01:05;9.90;48.50
47845;DHT22;33605;48.822;8.796;2022-11-21T21:03:33;9.90;48.50
47845;DHT22;33605;48.822;8.796;2022-11-21T21:06:01;9.90;48.50
47845;DHT22;33605;48.822;8.796;2022-11-21T21:08:27;9.90;48.60
47845;DHT22;33605;48.822;8.796;2022-11-21T21:11:09;9.90;48.70
47845;DHT22;33605;48.822;8.796;2022-11-21T21:13:35;9.90;49.00
47845;DHT22;33605;48.822;8.796;2022-11-21T21:16:11;9.90;49.10
47845;DHT22;33605;48.822;8.796;2022-11-21T21:18:37;9.90;49.40
47845;DHT22;33605;48.822;8.796;2022-11-21T21:21:04;9.80;49.40
47845;DHT22;33605;48.822;8.796;2022-11-21T21:23:30;9.80;49.70
47845;DHT22;33605;48.822;8.796;2022-11-21T21:25:56;9.70;49.90
47845;DHT22;33605;48.822;8.796;2022-11-21T21:28:21;9.70;50.00
47845;DHT22;33605;48.822;8.796;2022-11-21T21:30:47;9.60;50.00
47845;DHT22;33605;48.822;8.796;2022-11-21T21:33:13;9.60;50.30
47845;DHT22;33605;48.822;8.796;2022-11-21T21:35:40;9.60;50.60
47845;DHT22;33605;48.822;8.796;2022-11-21T21:38:06;9.60;50.80
47845;DHT22;33605;48.822;8.796;2022-11-21T21:40:32;9.60;51.00
47845;DHT22;33605;48.822;8.796;2022-11-21T21:42:57;9.50;51.30
47845;DHT22;33605;48.822;8.796;2022-11-21T21:45:23;9.50;51.60
47845;DHT22;33605;48.822;8.796;2022-11-21T21:47:48;9.50;51.70
47845;DHT22;33605;48.822;8.796;2022-11-21T21:50:14;9.50;51.80
47845;DHT22;33605;48.822;8.796;2022-11-21T21:52:40;9.40;52.00
47845;DHT22;33605;48.822;8.796;2022-11-21T21:55:05;9.40;52.20
47845;DHT22;33605;48.822;8.796;2022-11-21T21:57:31;9.30;52.50
47845;DHT22;33605;48.822;8.796;2022-11-21T21:59:57;9.30;52.80
47845;DHT22;33605;48.822;8.796;2022-11-21T22:02:22;9.20;53.00
47845;DHT22;33605;48.822;8.796;2022-11-21T22:04:48;9.20;53.30
47845;DHT22;33605;48.822;8.796;2022-11-21T22:07:13;9.20;53.80
47845;DHT22;33605;48.822;8.796;2022-11-21T22:09:39;9.20;54.10
47845;DHT22;33605;48.822;8.796;2022-11-21T22:12:05;9.20;54.40
47845;DHT22;33605;48.822;8.796;2022-11-21T22:14:30;9.20;55.00
47845;DHT22;33605;48.822;8.796;2022-11-21T22:16:56;9.20;55.30
47845;DHT22;33605;48.822;8.796;2022-11-21T22:19:22;9.20;55.50
47845;DHT22;33605;48.822;8.796;2022-11-21T22:21:47;9.20;55.60
47845;DHT22;33605;48.822;8.796;2022-11-21T22:24:14;9.20;55.90